Union City, TN

12:06 AM CDT am 23. Oktober 2014 (GMT -0500)
KTNUNION3 | Change Station
CLOSE
Current Station
Persönliche Wetterstationen
Location: Union City, TN
Höhe: 360 ft
Wetterstationen in der Umgebung

Höhe 360 ft 36.41 °N, 89.05 °W | Updated 6 minutes ago

Teils Wolkig
Teils Wolkig
47.0 °F
gefühlte 47 °F
N
0.0
Wind Wechselnd Wind aus Nordost
Gusts 0.0 mph

Heute
Max. -- | schwach -- °F
--% Regenrisiko
Gestern
Max. -- | schwach -- °F
Precip. -- inch
7:10 AM 6:09 PM
Letztes Viertel, 1% visible
Druck 30.20 inch
Sichtweite 10.0 Meilen
Wolken Heiter
Windchill 47 °F
Taupunkt 42 °F
Feuchtigkeit 84%
Regen 0.00 inch
Schneehöhe Nicht verfügbar..
UV 0 von 12
Pollen 2.00 von 12
Luftqualität Nicht verfügbar..
Flu Activity Sporadic
METAR KUCY 230455Z AUTO 00000KT 10SM CLR 04/04 A3020 RMK

More Conditions Fewer Conditions

Druck 30.20 inch
Sichtweite 10.0 Meilen
Wolken Heiter
Windchill 47 °F
Taupunkt 42 °F
Feuchtigkeit 84%
Regen 0.00 inch
Schneehöhe Nicht verfügbar..
UV 0 von 12
Pollen 2.00 von 12
Luftqualität Nicht verfügbar..
Flu Activity Sporadic
METAR KUCY 230455Z AUTO 00000KT 10SM CLR 04/04 A3020 RMK

More Conditions Fewer Conditions

10-Day Weather Forecast

Almanac

Astronomie

Oct. 23, 2014 Aufgang Untergang
Genaue Zeit 07:10 CDT 18:09 CDT
Bürgerliche Dämmerung 06:44 CDT 18:36 CDT
Nautische Dämmerung 06:14 CDT 19:06 CDT
Astronomische Dämmerung 05:44 CDT 19:35 CDT
Mond 06:50 CDT 18:11 CDT
Länge des sichtbaren Lichts 11h 51m
Tageslänge
10h 59m
Tomorrow will be 2m 9s shorter.
Letztes Viertel, 1% of the Moon is Illuminated
Heute
Letztes Viertel
Okt 23
Neu
Okt 30
Erstes Viertel
Nov 6
Vollmond
Nov 14
Letztes Viertel

Heutige Rekorde

State Highs State Lows

Community

WunderPhotos

Upload Photos

1,764,169 Fotos hochgeladen!

Nearby

Schneehöhe

Station Depth Höhe
Kein Neuschnee gemeldet.

Erdbebenaktivität

Stadt Distance Mag. Time & Date
No recent earthquake activity has been reported nearby.
Minimum magnitude displayed is 2.5.

küstennahe Wassertemperaturen

Ort Temperatur
Kein Stationsbericht

Wetterstationen in der Umgebung